createdAt,value
2019-03-17T00:00:13.580Z,14.07
2019-03-17T00:02:42.497Z,15.32
2019-03-17T00:05:11.618Z,15.10
2019-03-17T00:07:40.538Z,14.83
2019-03-17T00:10:09.626Z,15.45
2019-03-17T00:12:38.658Z,17.32
2019-03-17T00:15:08.303Z,17.10
2019-03-17T00:17:37.284Z,16.40
2019-03-17T00:20:07.657Z,17.67
2019-03-17T00:22:36.658Z,20.25
2019-03-17T00:25:09.743Z,18.12
2019-03-17T00:27:38.379Z,20.82
2019-03-17T00:30:09.859Z,16.48
2019-03-17T00:32:38.900Z,20.40
2019-03-17T00:35:09.174Z,21.02
2019-03-17T00:37:38.458Z,21.57
2019-03-17T00:40:10.143Z,18.40
2019-03-17T00:42:39.151Z,17.65
2019-03-17T00:45:11.555Z,16.20
2019-03-17T00:47:40.866Z,22.87
2019-03-17T00:50:11.739Z,27.98
2019-03-17T00:52:40.619Z,32.90
2019-03-17T00:55:09.662Z,22.85
2019-03-17T00:57:38.618Z,22.00
2019-03-17T01:00:10.985Z,20.72
2019-03-17T01:02:40.021Z,19.25
2019-03-17T01:05:09.099Z,19.52
2019-03-17T01:07:38.229Z,19.30
2019-03-17T01:10:09.105Z,22.85
2019-03-17T01:12:38.401Z,18.73
2019-03-17T01:15:08.499Z,18.50
2019-03-17T01:17:37.467Z,20.10
2019-03-17T01:20:09.345Z,18.62
2019-03-17T01:22:38.299Z,17.42
2019-03-17T01:25:09.345Z,19.87
2019-03-17T01:27:38.426Z,19.57
2019-03-17T01:30:12.939Z,18.67
2019-03-17T01:32:41.982Z,18.25
2019-03-17T01:35:11.220Z,20.02
2019-03-17T01:37:40.259Z,17.12
2019-03-17T01:40:10.581Z,17.12
2019-03-17T01:42:39.659Z,18.02
2019-03-17T01:45:09.906Z,15.70
2019-03-17T01:47:39.055Z,18.10
2019-03-17T01:50:09.220Z,16.67
2019-03-17T01:52:38.221Z,19.42
2019-03-17T01:55:08.027Z,16.77
2019-03-17T01:57:37.100Z,16.87
2019-03-17T02:00:09.379Z,18.00
2019-03-17T02:02:38.340Z,19.25
2019-03-17T02:05:07.899Z,18.30
2019-03-17T02:07:36.939Z,18.73
2019-03-17T02:10:07.627Z,20.90
2019-03-17T02:12:36.580Z,17.90
2019-03-17T02:15:08.105Z,23.90
2019-03-17T02:17:37.179Z,22.02
2019-03-17T02:20:09.265Z,18.73
2019-03-17T02:22:38.219Z,20.77
2019-03-17T02:25:07.379Z,19.12
2019-03-17T02:27:36.489Z,18.62
2019-03-17T02:30:08.141Z,18.75
2019-03-17T02:32:37.234Z,17.92
2019-03-17T02:35:06.661Z,15.88
2019-03-17T02:37:35.704Z,18.42
2019-03-17T02:40:06.581Z,18.98
2019-03-17T02:42:35.782Z,17.73
2019-03-17T02:45:06.876Z,20.37
2019-03-17T02:47:35.939Z,19.65
2019-03-17T02:50:06.346Z,18.57
2019-03-17T02:52:35.470Z,18.82
2019-03-17T02:55:05.900Z,18.12
2019-03-17T02:57:34.940Z,15.70
2019-03-17T03:00:04.871Z,17.32
2019-03-17T03:02:33.825Z,15.38
2019-03-17T03:05:02.899Z,14.98
2019-03-17T03:07:31.988Z,17.00
2019-03-17T03:10:00.983Z,17.77
2019-03-17T03:12:29.944Z,16.30
2019-03-17T03:14:59.019Z,17.10
2019-03-17T03:17:28.036Z,16.12
2019-03-17T03:19:56.948Z,18.02
2019-03-17T03:22:25.900Z,14.90
2019-03-17T03:24:54.820Z,17.20
2019-03-17T03:27:23.939Z,16.95
2019-03-17T03:29:52.904Z,16.23
2019-03-17T03:32:21.982Z,16.67
2019-03-17T03:34:51.060Z,19.50
2019-03-17T03:37:20.138Z,16.93
2019-03-17T03:39:49.181Z,17.15
2019-03-17T03:42:18.186Z,16.60
2019-03-17T03:44:47.147Z,17.48
2019-03-17T03:47:16.112Z,17.50
2019-03-17T03:49:45.180Z,18.73
2019-03-17T03:52:14.189Z,18.90
2019-03-17T03:54:43.223Z,20.20
2019-03-17T03:57:12.186Z,19.87
2019-03-17T03:59:41.142Z,21.82
2019-03-17T04:02:10.349Z,22.45
2019-03-17T04:04:39.500Z,17.45
2019-03-17T04:07:08.587Z,18.62
2019-03-17T04:09:37.630Z,19.87
2019-03-17T04:12:06.705Z,18.75
2019-03-17T04:14:35.785Z,19.75
2019-03-17T04:17:04.821Z,18.92
2019-03-17T04:19:33.773Z,19.10
2019-03-17T04:22:02.827Z,21.30
2019-03-17T04:24:31.820Z,22.52
2019-03-17T04:27:00.979Z,24.25
2019-03-17T04:29:30.021Z,24.43
2019-03-17T04:31:59.100Z,22.67
2019-03-17T04:34:28.142Z,24.30
2019-03-17T04:36:57.101Z,24.75
2019-03-17T04:39:26.027Z,24.00
2019-03-17T04:41:55.215Z,26.57
2019-03-17T04:44:24.182Z,25.60
2019-03-17T04:46:53.336Z,23.05
2019-03-17T04:49:22.419Z,22.50
2019-03-17T04:51:51.579Z,25.40
2019-03-17T04:54:20.421Z,27.45
2019-03-17T04:56:49.339Z,25.60
2019-03-17T04:59:18.459Z,24.20
2019-03-17T05:01:47.379Z,26.60
2019-03-17T05:04:16.461Z,25.95
2019-03-17T05:06:52.641Z,25.80
2019-03-17T05:09:16.244Z,23.38
2019-03-17T05:11:45.265Z,27.85
2019-03-17T05:14:14.219Z,27.35
2019-03-17T05:16:43.104Z,22.27
2019-03-17T05:19:12.059Z,40.50
2019-03-17T05:21:41.219Z,35.45
2019-03-17T05:24:10.144Z,35.15
2019-03-17T05:26:39.355Z,32.67
2019-03-17T05:29:08.419Z,29.10
2019-03-17T05:31:37.611Z,35.80
2019-03-17T05:34:06.585Z,33.73
2019-03-17T05:36:35.579Z,38.33
2019-03-17T05:39:06.376Z,25.08
2019-03-17T05:41:35.227Z,28.27
2019-03-17T05:44:04.219Z,28.45
2019-03-17T05:46:33.050Z,29.87
2019-03-17T05:49:01.979Z,28.30
2019-03-17T05:51:30.902Z,29.00
2019-03-17T05:53:59.819Z,24.57
2019-03-17T05:56:28.779Z,24.70
2019-03-17T05:58:57.866Z,28.60
2019-03-17T06:01:26.900Z,24.07
2019-03-17T06:03:56.383Z,26.27
2019-03-17T06:06:25.370Z,26.12
2019-03-17T06:08:54.408Z,25.17
2019-03-17T06:11:23.320Z,24.92
2019-03-17T06:13:52.377Z,24.45
2019-03-17T06:16:21.459Z,24.05
2019-03-17T06:18:50.579Z,23.40
2019-03-17T06:21:19.621Z,24.40
2019-03-17T06:23:48.739Z,25.60
2019-03-17T06:26:17.659Z,23.05
2019-03-17T06:28:46.579Z,22.75
2019-03-17T06:31:15.458Z,22.98
2019-03-17T06:33:44.659Z,20.12
2019-03-17T06:36:13.499Z,19.80
2019-03-17T06:38:42.539Z,20.12
2019-03-17T06:41:11.467Z,18.45
2019-03-17T06:43:40.499Z,19.05
2019-03-17T06:46:09.586Z,17.92
2019-03-17T06:48:38.579Z,20.50
2019-03-17T06:51:07.539Z,16.75
2019-03-17T06:53:36.579Z,17.30
2019-03-17T06:56:05.659Z,17.57
2019-03-17T06:58:34.658Z,17.25
2019-03-17T07:01:03.906Z,15.13
2019-03-17T07:03:32.986Z,15.35
2019-03-17T07:06:02.349Z,15.40
2019-03-17T07:08:31.380Z,15.95
2019-03-17T07:11:00.419Z,17.50
2019-03-17T07:13:29.379Z,14.40
2019-03-17T07:15:58.419Z,15.03
2019-03-17T07:18:27.379Z,16.32
2019-03-17T07:20:56.263Z,14.93
2019-03-17T07:23:25.299Z,14.03
2019-03-17T07:25:54.299Z,14.73
2019-03-17T07:28:23.262Z,12.70
2019-03-17T07:30:52.301Z,11.78
2019-03-17T07:33:21.460Z,12.60
2019-03-17T07:35:50.499Z,14.07
2019-03-17T07:38:19.339Z,14.30
2019-03-17T07:40:48.355Z,12.98
2019-03-17T07:43:17.579Z,14.58
2019-03-17T07:45:46.660Z,13.20
2019-03-17T07:48:15.779Z,11.33
2019-03-17T07:50:44.820Z,9.83
2019-03-17T07:53:13.819Z,9.83
2019-03-17T07:55:42.900Z,9.15
2019-03-17T07:58:11.981Z,10.63
2019-03-17T08:00:41.020Z,10.35
2019-03-17T08:03:09.897Z,9.48
2019-03-17T08:05:38.900Z,9.50
2019-03-17T08:08:09.650Z,10.25
2019-03-17T08:10:38.857Z,10.03
2019-03-17T08:13:07.817Z,7.67
2019-03-17T08:15:36.858Z,9.18
2019-03-17T08:18:05.931Z,8.75
2019-03-17T08:20:34.893Z,10.70
2019-03-17T08:23:03.942Z,7.50
2019-03-17T08:25:32.939Z,6.65
2019-03-17T08:28:01.822Z,8.80
2019-03-17T08:30:31.019Z,6.60
2019-03-17T08:33:00.025Z,6.60
2019-03-17T08:35:28.980Z,5.58
2019-03-17T08:37:58.018Z,6.25
2019-03-17T08:40:27.031Z,5.50
2019-03-17T08:42:55.978Z,7.60
2019-03-17T08:45:24.899Z,7.28
2019-03-17T08:47:58.359Z,6.17
2019-03-17T08:50:24.418Z,6.17
2019-03-17T08:52:53.463Z,7.10
2019-03-17T08:55:22.617Z,7.08
2019-03-17T08:57:51.659Z,6.08
2019-03-17T09:00:21.539Z,5.08
2019-03-17T09:02:50.623Z,5.05
2019-03-17T09:05:19.660Z,4.95
2019-03-17T09:07:48.659Z,4.15
2019-03-17T09:10:17.898Z,4.37
2019-03-17T09:12:46.863Z,3.92
2019-03-17T09:15:16.025Z,3.83
2019-03-17T09:17:45.139Z,4.12
2019-03-17T09:20:14.988Z,3.50
2019-03-17T09:22:44.021Z,5.58
2019-03-17T09:25:12.940Z,4.03
2019-03-17T09:27:42.069Z,3.92
2019-03-17T09:30:18.130Z,3.77
2019-03-17T09:32:47.182Z,2.72
2019-03-17T09:35:16.263Z,2.50
2019-03-17T09:37:45.267Z,3.20
2019-03-17T09:40:15.257Z,5.10
2019-03-17T09:42:44.354Z,2.62
2019-03-17T09:45:14.381Z,2.42
2019-03-17T09:47:43.577Z,2.80
2019-03-17T09:50:16.861Z,1.67
2019-03-17T09:52:45.943Z,3.90
2019-03-17T09:55:14.823Z,2.37
2019-03-17T09:57:43.819Z,2.08
2019-03-17T10:00:18.459Z,2.00
2019-03-17T10:02:47.569Z,2.00
2019-03-17T10:05:16.770Z,6.10
2019-03-17T10:07:45.694Z,2.72
2019-03-17T10:10:16.763Z,2.37
2019-03-17T10:12:45.961Z,4.25
2019-03-17T10:15:16.389Z,3.80
2019-03-17T10:17:45.458Z,2.00
2019-03-17T10:20:16.442Z,2.55
2019-03-17T10:22:45.568Z,3.12
2019-03-17T10:25:14.614Z,2.10
2019-03-17T10:27:43.600Z,2.90
2019-03-17T10:30:19.601Z,1.92
2019-03-17T10:32:48.651Z,3.50
2019-03-17T10:35:17.601Z,2.00
2019-03-17T10:37:46.680Z,2.60
2019-03-17T10:40:16.853Z,2.50
2019-03-17T10:42:45.931Z,3.62
2019-03-17T10:45:15.673Z,3.47
2019-03-17T10:47:44.755Z,2.42
2019-03-17T10:50:18.122Z,3.75
2019-03-17T10:52:47.122Z,3.47
2019-03-17T10:55:16.482Z,3.00
2019-03-17T10:57:45.648Z,3.27
2019-03-17T11:00:17.575Z,3.45
2019-03-17T11:02:46.682Z,5.70
2019-03-17T11:05:15.760Z,3.83
2019-03-17T11:07:44.967Z,4.10
2019-03-17T11:10:15.250Z,5.58
2019-03-17T11:12:44.486Z,4.03
2019-03-17T11:15:17.721Z,3.22
2019-03-17T11:17:46.809Z,4.75
2019-03-17T11:20:16.122Z,3.33
2019-03-17T11:22:45.202Z,3.17
2019-03-17T11:25:16.226Z,4.55
2019-03-17T11:27:45.402Z,3.98
2019-03-17T11:30:19.441Z,4.75
2019-03-17T11:32:48.731Z,3.75
2019-03-17T11:35:18.049Z,3.10
2019-03-17T11:37:47.321Z,4.65
2019-03-17T11:40:21.416Z,4.42
2019-03-17T11:42:50.688Z,3.72
2019-03-17T11:45:19.956Z,5.42
2019-03-17T11:47:49.275Z,3.50
2019-03-17T11:50:19.634Z,3.02
2019-03-17T11:52:48.882Z,3.72
2019-03-17T11:55:18.217Z,2.87
2019-03-17T11:57:47.640Z,4.05
2019-03-17T12:00:20.830Z,3.47
2019-03-17T12:02:49.836Z,5.00
2019-03-17T12:05:19.090Z,3.08
2019-03-17T12:07:48.161Z,3.50
2019-03-17T12:10:23.889Z,3.75
2019-03-17T12:12:52.962Z,3.00
2019-03-17T12:15:24.386Z,3.52
2019-03-17T12:17:53.370Z,3.42
2019-03-17T12:20:22.571Z,2.47
2019-03-17T12:22:51.673Z,3.47
2019-03-17T12:25:20.882Z,2.70
2019-03-17T12:27:50.114Z,2.42
2019-03-17T12:30:27.160Z,1.80
2019-03-17T12:32:56.921Z,2.05
2019-03-17T12:35:25.975Z,2.33
2019-03-17T12:37:55.129Z,2.08
2019-03-17T12:40:24.361Z,2.15
2019-03-17T12:42:53.421Z,1.72
2019-03-17T12:45:22.523Z,3.15
2019-03-17T12:47:51.520Z,3.20
2019-03-17T12:50:27.726Z,4.70
2019-03-17T12:52:56.929Z,4.78
2019-03-17T12:55:26.128Z,2.75
2019-03-17T12:57:55.288Z,2.00
2019-03-17T13:00:27.930Z,2.72
2019-03-17T13:02:57.210Z,2.33
2019-03-17T13:05:26.488Z,2.35
2019-03-17T13:07:55.720Z,2.25
2019-03-17T13:10:24.931Z,2.70
2019-03-17T13:12:54.122Z,2.35
2019-03-17T13:15:24.291Z,2.72
2019-03-17T13:17:53.491Z,3.08
2019-03-17T13:20:22.841Z,2.92
2019-03-17T13:22:52.012Z,2.90
2019-03-17T13:25:21.162Z,2.60
2019-03-17T13:27:50.407Z,2.22
2019-03-17T13:30:20.050Z,2.95
2019-03-17T13:32:49.211Z,2.95
2019-03-17T13:35:18.409Z,2.85
2019-03-17T13:37:47.560Z,2.58
2019-03-17T13:40:28.777Z,2.55
2019-03-17T13:42:49.689Z,2.90
2019-03-17T13:45:18.932Z,2.22
2019-03-17T13:47:48.169Z,2.65
2019-03-17T13:50:21.939Z,3.25
2019-03-17T13:52:51.172Z,3.35
2019-03-17T13:55:20.488Z,3.65
2019-03-17T13:57:52.520Z,2.75
2019-03-17T14:00:21.770Z,3.83
2019-03-17T14:02:51.050Z,3.58
2019-03-17T14:05:20.280Z,2.90
2019-03-17T14:07:49.440Z,2.85
2019-03-17T14:10:19.410Z,3.80
2019-03-17T14:12:48.627Z,3.33
2019-03-17T14:15:17.921Z,2.50
2019-03-17T14:17:47.084Z,3.55
2019-03-17T14:20:21.027Z,3.85
2019-03-17T14:22:50.546Z,3.87
2019-03-17T14:25:31.591Z,4.08
2019-03-17T14:28:00.854Z,4.53
2019-03-17T14:30:30.100Z,2.80
2019-03-17T14:32:59.408Z,2.80
2019-03-17T14:35:28.610Z,3.85
2019-03-17T14:37:58.000Z,5.83
2019-03-17T14:40:27.255Z,4.17
2019-03-17T14:42:56.489Z,4.70
2019-03-17T14:45:25.600Z,4.25
2019-03-17T14:47:54.930Z,3.83
2019-03-17T14:50:25.001Z,4.05
2019-03-17T14:52:54.262Z,4.12
2019-03-17T14:55:23.561Z,3.92
2019-03-17T14:57:52.730Z,3.90
2019-03-17T15:00:23.309Z,4.10
2019-03-17T15:02:52.567Z,5.35
2019-03-17T15:05:21.770Z,5.12
2019-03-17T15:07:50.970Z,4.08
2019-03-17T15:10:21.254Z,5.17
2019-03-17T15:12:50.533Z,4.35
2019-03-17T15:15:20.665Z,3.50
2019-03-17T15:17:50.210Z,5.45
2019-03-17T15:20:22.168Z,4.72
2019-03-17T15:22:51.409Z,4.47
2019-03-17T15:25:20.684Z,6.03
2019-03-17T15:27:49.889Z,4.45
2019-03-17T15:30:31.014Z,3.75
2019-03-17T15:33:00.281Z,3.22
2019-03-17T15:35:29.442Z,4.75
2019-03-17T15:37:58.647Z,5.03
2019-03-17T15:40:27.881Z,4.42
2019-03-17T15:42:57.169Z,4.85
2019-03-17T15:45:26.775Z,3.90
2019-03-17T15:47:56.052Z,4.10
2019-03-17T15:50:26.125Z,3.30
2019-03-17T15:52:55.546Z,3.75
2019-03-17T15:55:24.920Z,4.17
2019-03-17T15:57:54.250Z,5.58
2019-03-17T16:00:27.298Z,4.53
2019-03-17T16:02:57.642Z,3.83
2019-03-17T16:05:26.850Z,4.72
2019-03-17T16:07:56.040Z,5.90
2019-03-17T16:10:32.763Z,5.22
2019-03-17T16:13:02.012Z,6.40
2019-03-17T16:15:31.283Z,5.37
2019-03-17T16:18:00.527Z,4.17
2019-03-17T16:20:29.691Z,3.95
2019-03-17T16:22:58.962Z,5.95
2019-03-17T16:25:32.770Z,5.95
2019-03-17T16:28:02.096Z,5.03
2019-03-17T16:30:32.328Z,4.15
2019-03-17T16:33:01.650Z,4.83
2019-03-17T16:35:30.813Z,4.37
2019-03-17T16:38:00.184Z,3.98
2019-03-17T16:40:36.370Z,4.25
2019-03-17T16:43:07.091Z,4.50
2019-03-17T16:45:37.901Z,5.92
2019-03-17T16:48:07.130Z,4.05
2019-03-17T16:50:36.374Z,3.83
2019-03-17T16:53:05.607Z,5.00
2019-03-17T16:55:34.890Z,6.67
2019-03-17T16:58:04.204Z,4.30
2019-03-17T17:00:33.523Z,4.75
2019-03-17T17:03:02.722Z,3.75
2019-03-17T17:05:34.956Z,3.72
2019-03-17T17:08:02.884Z,6.08
2019-03-17T17:10:32.689Z,5.37
2019-03-17T17:13:01.925Z,5.10
2019-03-17T17:15:32.882Z,6.40
2019-03-17T17:18:02.172Z,6.00
2019-03-17T17:20:35.930Z,6.28
2019-03-17T17:23:05.309Z,5.53
2019-03-17T17:25:34.640Z,6.00
2019-03-17T17:28:03.881Z,7.35
2019-03-17T17:30:33.122Z,6.97
2019-03-17T17:33:02.370Z,6.62
2019-03-17T17:35:31.644Z,6.67
2019-03-17T17:38:00.874Z,6.37
2019-03-17T17:40:30.109Z,5.60
2019-03-17T17:42:59.323Z,6.17
2019-03-17T17:45:28.579Z,4.72
2019-03-17T17:47:57.777Z,6.70
2019-03-17T17:50:29.997Z,8.98
2019-03-17T17:52:59.312Z,5.53
2019-03-17T17:55:28.578Z,5.55
2019-03-17T17:57:57.857Z,5.25
2019-03-17T18:00:31.096Z,6.05
2019-03-17T18:03:01.699Z,8.25
2019-03-17T18:05:30.937Z,6.65
2019-03-17T18:08:00.193Z,9.85
2019-03-17T18:10:29.348Z,10.50
2019-03-17T18:12:58.577Z,10.03
2019-03-17T18:15:34.899Z,8.60
2019-03-17T18:18:05.538Z,15.00
2019-03-17T18:20:34.707Z,11.93
2019-03-17T18:23:03.899Z,10.28
2019-03-17T18:25:33.100Z,10.68
2019-03-17T18:28:02.378Z,10.53
2019-03-17T18:30:31.577Z,10.30
2019-03-17T18:33:00.825Z,11.48
2019-03-17T18:35:30.180Z,10.18
2019-03-17T18:38:00.822Z,9.20
2019-03-17T18:40:30.180Z,10.82
2019-03-17T18:42:59.579Z,12.85
2019-03-17T18:45:30.417Z,11.63
2019-03-17T18:47:59.697Z,12.15
2019-03-17T18:50:29.063Z,10.95
2019-03-17T18:52:58.419Z,13.00
2019-03-17T18:55:27.738Z,10.40
2019-03-17T18:57:57.059Z,10.20
2019-03-17T19:00:28.539Z,10.70
2019-03-17T19:02:57.910Z,11.75
2019-03-17T19:05:27.163Z,16.57
2019-03-17T19:07:56.440Z,10.45
2019-03-17T19:10:25.699Z,13.53
2019-03-17T19:12:54.999Z,13.88
2019-03-17T19:15:24.540Z,14.63
2019-03-17T19:17:53.780Z,11.20
2019-03-17T19:20:23.759Z,12.13
2019-03-17T19:22:52.901Z,14.10
2019-03-17T19:25:23.360Z,14.03
2019-03-17T19:27:52.561Z,11.70
2019-03-17T19:30:23.604Z,16.32
2019-03-17T19:32:52.758Z,13.32
2019-03-17T19:35:23.421Z,14.80
2019-03-17T19:37:52.720Z,18.55
2019-03-17T19:40:25.638Z,16.30
2019-03-17T19:42:59.549Z,17.17
2019-03-17T19:45:27.343Z,17.60
2019-03-17T19:47:56.481Z,16.07
2019-03-17T19:50:25.824Z,19.27
2019-03-17T19:52:55.110Z,20.08
2019-03-17T19:55:24.309Z,18.55
2019-03-17T19:57:54.999Z,17.48
2019-03-17T20:00:24.299Z,13.20
2019-03-17T20:02:53.522Z,14.35
2019-03-17T20:05:22.740Z,18.60
2019-03-17T20:07:52.021Z,14.73
2019-03-17T20:10:29.620Z,16.85
2019-03-17T20:13:10.718Z,10.60
2019-03-17T20:15:29.703Z,8.70
2019-03-17T20:17:59.020Z,10.58
2019-03-17T20:20:28.860Z,17.48
2019-03-17T20:22:59.379Z,9.10
2019-03-17T20:25:28.440Z,5.97
2019-03-17T20:27:57.605Z,2.80
2019-03-17T20:30:26.778Z,4.40
2019-03-17T20:32:55.923Z,5.08
2019-03-17T20:35:25.080Z,5.42
2019-03-17T20:37:54.239Z,3.10
2019-03-17T20:40:23.259Z,3.05
2019-03-17T20:42:52.344Z,3.30
2019-03-17T20:45:21.474Z,3.10
2019-03-17T20:47:50.667Z,2.45
2019-03-17T20:50:21.726Z,2.95
2019-03-17T20:52:50.957Z,7.75
2019-03-17T20:55:20.120Z,3.62
2019-03-17T20:57:49.319Z,3.77
2019-03-17T21:00:19.319Z,3.67
2019-03-17T21:02:48.493Z,4.30
2019-03-17T21:05:18.111Z,2.83
2019-03-17T21:07:47.343Z,3.35
2019-03-17T21:10:17.145Z,3.30
2019-03-17T21:12:46.241Z,2.55
2019-03-17T21:15:17.364Z,2.37
2019-03-17T21:17:46.518Z,3.42
2019-03-17T21:20:17.160Z,2.22
2019-03-17T21:22:46.218Z,3.58
2019-03-17T21:25:15.326Z,2.00
2019-03-17T21:27:44.561Z,3.02
2019-03-17T21:30:20.441Z,4.12
2019-03-17T21:32:49.747Z,3.50
2019-03-17T21:35:18.902Z,3.12
2019-03-17T21:37:47.879Z,3.90
2019-03-17T21:40:16.938Z,3.17
2019-03-17T21:42:46.122Z,2.95
2019-03-17T21:45:15.402Z,3.12
2019-03-17T21:47:44.558Z,3.62
2019-03-17T21:50:20.441Z,3.37
2019-03-17T21:52:49.627Z,4.00
2019-03-17T21:55:18.798Z,4.00
2019-03-17T21:57:47.778Z,4.22
2019-03-17T22:00:18.639Z,8.35
2019-03-17T22:02:47.558Z,4.28
2019-03-17T22:05:17.057Z,6.97
2019-03-17T22:07:49.981Z,7.45
2019-03-17T22:10:20.606Z,11.45
2019-03-17T22:12:49.618Z,13.00
2019-03-17T22:15:19.084Z,15.38
2019-03-17T22:17:48.078Z,6.90
2019-03-17T22:20:17.678Z,8.98
2019-03-17T22:22:46.580Z,11.43
2019-03-17T22:25:16.238Z,16.80
2019-03-17T22:27:45.205Z,11.63
2019-03-17T22:30:23.161Z,5.30
2019-03-17T22:32:52.158Z,10.93
2019-03-17T22:35:21.016Z,12.82
2019-03-17T22:37:49.921Z,12.13
2019-03-17T22:40:19.639Z,19.07
2019-03-17T22:42:48.479Z,22.95
2019-03-17T22:45:17.663Z,26.95
2019-03-17T22:47:46.726Z,15.55
2019-03-17T22:50:16.738Z,22.27
2019-03-17T22:52:45.799Z,11.33
2019-03-17T22:55:15.000Z,9.08
2019-03-17T22:57:43.859Z,10.48
2019-03-17T23:00:33.819Z,9.83
2019-03-17T23:03:02.862Z,5.12
2019-03-17T23:05:31.804Z,23.12
2019-03-17T23:08:00.742Z,2.65
2019-03-17T23:10:29.658Z,14.13
2019-03-17T23:12:58.878Z,5.65
2019-03-17T23:15:27.800Z,23.83
2019-03-17T23:17:56.858Z,4.40
2019-03-17T23:20:25.797Z,8.28
2019-03-17T23:22:54.658Z,5.37
2019-03-17T23:25:23.539Z,6.47
2019-03-17T23:27:52.399Z,17.57
2019-03-17T23:30:22.260Z,12.78
2019-03-17T23:32:51.118Z,18.67
2019-03-17T23:35:20.000Z,11.55
2019-03-17T23:37:48.977Z,7.40
2019-03-17T23:40:18.558Z,6.17
2019-03-17T23:42:47.418Z,7.35
2019-03-17T23:45:16.519Z,11.10
2019-03-17T23:47:45.399Z,15.32
2019-03-17T23:50:16.087Z,16.40
2019-03-17T23:52:45.000Z,29.45
2019-03-17T23:55:15.158Z,29.48
2019-03-17T23:57:44.063Z,10.35
